Open Full Screen Window  High Contrast Mode
Wind Gusting 15 knots
10
May 26, 2016 12:25 PM EDT
Weather Information
Wind Direction
  200 °
Wind Speed
  10 kt (12 mph)
Wind Gust
  15 kt (17 mph)
Altimeter
30.09 in
Visibility
10 SM
Temperature
25° C
77° F
Dewpoint
17° C
63° F
Humidity
61%
1hr Rain Fall
00.00 in.
24hr Rain Fall
00.00 in.
Sky Condition
Overcast @ 3,200 ft
VFR

METAR KI69 261625Z AUTO 20010G15KT 10SM OVC032 25/17 A3009 RMK AO2 T02510167

*Background is not an actual portrayal of the airport.